Home > Products > Valid Products > TAF

000
FTUS43 KIND 230500
TAFIND
TAF
KIND 230526Z 2306/2412 19008KT P6SM -RA OVC050
     FM231100 15008KT P6SM VCSH OVC035
     FM231700 12014KT 4SM -RA BR OVC018
     FM232200 16014KT 3SM -RA BR OVC007 WS012/21050KT=



000
FTUS43 KIND 230500
TAFLAF
TAF
KLAF 230526Z 2306/2406 19007KT P6SM -RA OVC050
     FM231000 19007KT P6SM VCSH OVC035
     FM231600 15010KT 4SM -RA BR OVC018
     FM232100 11012KT 3SM -RA BR OVC007
      AMD LTD TO CLD VIS AND WIND TIL 231400=



000
FTUS43 KIND 230500
TAFIND
TAF
KIND 230520Z 2306/2412 18010KT P6SM -SHRA OVC050
     FM231200 15008KT 6SM -DZ BR VCSH OVC035
     FM231600 13014KT 4SM -RA BR OVC018
     FM232100 16014KT 3SM -RA BR OVC007 WS012/21050KT=



000
FTUS43 KIND 230500
TAFLAF
TAF
KLAF 230520Z 2306/2406 19006KT 6SM -RA BR OVC035
     FM231000 18007KT 6SM -DZ BR VCSH OVC035
     FM231500 15010KT 4SM -RA BR OVC018
     FM232000 11012KT 3SM -RA BR OVC007
     FM240300 18012KT 3SM -RA BR OVC007 WS012/21045KT
      AMD LTD TO CLD VIS AND WIND TIL 231400=



000
FTUS43 KIND 230200 AAA
TAFIND
TAF AMD
KIND 230210Z 2302/2406 19011KT P6SM VCSH OVC040
     FM231200 15008KT P6SM VCSH OVC035
     FM231700 12014KT 4SM -RA BR OVC018
     FM232200 16014KT 3SM -RA BR OVC007 WS012/21050KT=



000
FTUS43 KIND 222300
TAFLAF
TAF
KLAF 222320Z 2300/2324 21008KT P6SM VCSH OVC035
     FM231000 19007KT P6SM VCSH OVC035
     FM231600 15010KT 4SM -RA BR OVC018
     FM232100 11012KT 3SM -RA BR OVC007
      AMD LTD TO CLD VIS AND WIND 2302/2314=



000
FTUS43 KIND 222300
TAFIND
TAF
KIND 222320Z 2300/2406 19011KT P6SM VCSH OVC050
     FM231200 15008KT P6SM VCSH OVC035
     FM231700 12014KT 4SM -RA BR OVC018
     FM232200 16014KT 3SM -RA BR OVC007 WS012/21050KT=



000
FTUS43 KIND 222000 AAA
TAFIND
TAF AMD
KIND 222025Z 2220/2324 20014G24KT P6SM VCSH BKN040 OVC060
      WS020/23055KT
     FM222300 18011KT P6SM VCSH OVC040
     FM231200 15008KT 6SM BR OVC020
     FM231700 15011KT 4SM -RA BR OVC015=



000
FTUS43 KIND 221700
TAFLAF
TAF
KLAF 221727Z 2218/2318 21012G20KT P6SM VCSH BKN035 OVC060
      WS020/23050KT
      TEMPO 2218/2220 -SHRA
     FM222300 20008KT P6SM VCSH OVC040
     FM230900 18007KT 4SM -RA OVC015=



000
FTUS43 KIND 221700
TAFIND
TAF
KIND 221727Z 2218/2324 20014G24KT P6SM VCSH BKN040 OVC060
      WS020/23055KT
      TEMPO 2218/2222 -SHRA
     FM222300 18011KT P6SM VCSH OVC040
     FM231200 15008KT 6SM BR OVC020
     FM231700 15011KT 4SM -RA BR OVC015=



000
FTUS43 KIND 221400 AAA
TAFIND
TAF AMD
KIND 221408Z 2214/2318 16009KT P6SM VCSH BKN050 OVC090
      WS020/23050KT
     FM221700 19014G24KT P6SM VCSH BKN040 OVC060 WS020/23055KT
     FM222300 18011KT P6SM VCSH OVC040
     FM231200 15008KT 6SM BR OVC020=



000
FTUS43 KIND 221100
TAFIND
TAF
KIND 221130Z 2212/2318 17009KT P6SM VCSH BKN035 OVC050
      WS020/23050KT
     FM221700 19014G24KT P6SM VCSH BKN040 OVC060 WS020/23055KT
     FM222300 18011KT P6SM VCSH OVC040
     FM231200 15008KT 6SM BR OVC020=



000
FTUS43 KIND 221100
TAFLAF
TAF
KLAF 221130Z 2212/2312 19009KT P6SM VCSH BKN035 OVC050
      WS020/23050KT
     FM221700 21012G20KT P6SM VCSH BKN040 OVC060 WS020/23050KT
     FM222300 20008KT P6SM VCSH OVC040
      AMD LTD TO CLD VIS AND WIND TIL 221400=



000
FTUS43 KIND 221000 AAA
TAFLAF
TAF AMD
KLAF 221053Z 2211/2306 19008KT P6SM VCSH BKN035 OVC050
      WS020/23050KT
     FM221700 21012G20KT P6SM VCSH BKN040 OVC060 WS020/23050KT
     FM222300 18010KT P6SM VCSH OVC040
      AMD LTD TO CLD VIS AND WIND TIL 221400=



000
FTUS43 KIND 221000 AAA
TAFIND
TAF AMD
KIND 221051Z 2211/2312 17009KT P6SM VCSH SCT025 BKN035 OVC050
      WS020/23050KT
     FM221700 19014G24KT P6SM VCSH BKN040 OVC060 WS020/23055KT
     FM222300 18011KT P6SM VCSH OVC040=



000
FTUS43 KIND 220800 AAB
TAFIND
TAF AMD
KIND 220849Z 2209/2312 15008KT P6SM OVC025
      TEMPO 2209/2211 6SM -FZRA
     FM221200 17010KT 6SM -SHRA OVC025 WS020/23050KT
     FM221400 19012G20KT P6SM -SHRA BKN030 OVC050 WS020/23050KT
     FM221800 19014G24KT P6SM VCSH OVC025 WS020/23050KT
     FM230100 18012KT P6SM VCSH OVC040=



000
FTUS43 KIND 220700 AAA
TAFIND
TAF AMD
KIND 220755Z 2208/2312 15008KT 5SM -FZRA OVC020
     FM221200 17010KT 6SM -SHRA OVC025 WS020/23050KT
     FM221400 19012G20KT P6SM -SHRA BKN030 OVC050 WS020/23050KT
     FM221800 19014G24KT P6SM VCSH OVC025 WS020/23050KT
     FM230100 18012KT P6SM VCSH OVC040=



000
FTUS43 KIND 220500
TAFIND
TAF
KIND 220534Z 2206/2312 15008KT P6SM OVC035
     FM220900 17009KT P6SM -RA OVC030
      TEMPO 2209/2211 -FZRA
     FM221200 19012G20KT P6SM -SHRA BKN030 OVC050 WS020/23050KT
     FM221800 19014G24KT P6SM VCSH OVC025 WS020/23050KT
     FM230100 18012KT P6SM VCSH OVC040=



000
FTUS43 KIND 220500
TAFLAF
TAF
KLAF 220534Z 2206/2306 16007KT P6SM OVC035
     FM220900 18009KT P6SM -FZRA OVC030
     FM221200 19012KT P6SM -SHRA BKN030 OVC050 WS020/23050KT
     FM221800 22013G20KT P6SM VCSH OVC040 WS020/23050KT
      AMD LTD TO CLD VIS AND WIND TIL 221400=



000
FTUS43 KIND 220000 AAA
TAFIND
TAF AMD
KIND 220220Z 2201/2306 13006KT P6SM FEW150
     FM220400 15008KT P6SM BKN060
     FM220800 17009KT P6SM -RA OVC030
     FM221200 19012G20KT P6SM -SHRA BKN030 OVC050 WS020/23050KT
     FM221800 19014G24KT P6SM VCSH OVC025 WS020/23050KT
     FM230100 18012KT P6SM VCSH OVC040=



000
FTUS43 KIND 212300
TAFIND
TAF
KIND 212326Z 2200/2306 13007KT P6SM SKC
     FM220400 15008KT P6SM BKN035
     FM220900 17009KT P6SM -RA OVC030
     FM221200 19012G20KT P6SM -SHRA BKN030 OVC050 WS020/23050KT
     FM221800 19014G24KT P6SM VCSH OVC025 WS020/23050KT
     FM230100 18012KT P6SM VCSH OVC040=



000
FTUS43 KIND 212300
TAFLAF
TAF
KLAF 212326Z 2200/2224 16008KT P6SM SKC
     FM220400 16007KT P6SM BKN035
     FM220900 18009KT P6SM -FZRA OVC030
     FM221200 19012KT P6SM -SHRA BKN030 OVC050 WS020/23050KT
     FM221800 22013G20KT P6SM VCSH OVC040 WS020/23050KT
      AMD LTD TO CLD VIS AND WIND 2202/2214=



000
FTUS43 KIND 212000 AAA
TAFIND
TAF AMD
KIND 212026Z 2120/2224 13007KT P6SM SKC
     FM220300 15008KT P6SM BKN035
     FM220800 17009KT P6SM -FZRA OVC030
     FM221200 19012KT P6SM -SHRA BKN030 OVC050 WS020/23050KT=



000
FTUS43 KIND 211700
TAFIND
TAF
KIND 211720Z 2118/2224 13007KT P6SM SKC
     FM220300 15008KT P6SM BKN035
     FM220800 17009KT P6SM -FZRA OVC030
     FM221200 19012KT P6SM -SHRA BKN030 OVC050 WS020/23050KT=



000
FTUS43 KIND 211700
TAFLAF
TAF
KLAF 211720Z 2118/2218 15008KT P6SM SKC
     FM220300 16007KT P6SM BKN035
     FM220700 18009KT P6SM -FZRA OVC030
     FM221200 19012KT P6SM -SHRA BKN030 OVC050 WS020/23050KT=



000
FTUS43 KIND 211400 AAA
TAFIND
TAF AMD
KIND 211415Z 2114/2218 VRB03KT P6SM SKC
     FM211600 12006KT P6SM SCT200
     FM220300 15008KT P6SM BKN035
     FM220600 17009KT P6SM -FZRA OVC030
     FM221200 19012KT P6SM -SHRA BKN030 OVC050=



000
FTUS43 KIND 211100
TAFLAF
TAF
KLAF 211125Z 2112/2212 VRB03KT P6SM SKC
     FM211600 16006KT P6SM SCT250
     FM220300 16007KT P6SM BKN035
     FM220600 18009KT P6SM -FZRA OVC030
      AMD LTD TO CLD VIS AND WIND TIL 211400=



000
FTUS43 KIND 211100
TAFIND
TAF
KIND 211125Z 2112/2218 VRB03KT P6SM SKC
     FM211600 12006KT P6SM SCT250
     FM220300 15008KT P6SM BKN035
     FM220600 17009KT P6SM -FZRA OVC030
     FM221200 19012KT P6SM -SHRA BKN030 OVC050=



000
FTUS43 KIND 210800 AAA
TAFIND
TAF AMD
KIND 210832Z 2109/2212 33004KT P6SM SKC
     FM211500 13006KT P6SM SCT250
     FM220300 16009KT P6SM BKN035=



000
FTUS43 KIND 210500
TAFLAF
TAF
KLAF 210530Z 2106/2206 31005KT P6SM SKC
     FM211500 15008KT P6SM SCT200
     FM220200 16006KT P6SM BKN035
      AMD LTD TO CLD VIS AND WIND TIL 211400=



000
FTUS43 KIND 210500
TAFIND
TAF
KIND 210530Z 2106/2212 30004KT P6SM SKC
     FM211500 13006KT P6SM SCT250
     FM220300 16009KT P6SM BKN035=



000
FTUS43 KIND 210100 AAA
TAFIND
TAF AMD
KIND 210220Z 2102/2206 26008KT P6SM SKC
     FM210600 30005KT P6SM SKC
     FM211500 13006KT P6SM SCT250
     FM220000 13007KT P6SM SCT200
     FM220400 15009KT P6SM BKN035=



000
FTUS43 KIND 202300
TAFLAF
TAF
KLAF 202325Z 2100/2124 26010KT P6SM SKC
     FM210300 30005KT P6SM SKC
     FM211500 15008KT P6SM SCT200
      AMD LTD TO CLD VIS AND WIND 2102/2114=



000
FTUS43 KIND 202300
TAFIND
TAF
KIND 202325Z 2100/2206 26010KT P6SM SKC
     FM210300 30005KT P6SM SKC
     FM211500 13006KT P6SM SCT250
     FM220000 13007KT P6SM SCT200
     FM220400 15009KT P6SM BKN035=



000
FTUS43 KIND 202100 AAA
TAFIND
TAF AMD
KIND 202133Z 2022/2124 26015G25KT P6SM SCT040
     FM210000 26008KT P6SM SKC
     FM210700 31005KT P6SM SKC
     FM211500 13006KT P6SM SCT200=



000
FTUS43 KIND 201900 AAA
TAFLAF
TAF AMD
KLAF 201924Z 2019/2118 26014G25KT P6SM SCT040
     FM210000 27009KT P6SM SKC
     FM210600 30005KT P6SM SKC
     FM211500 15004KT P6SM SCT200=



000
FTUS43 KIND 201700
TAFLAF
TAF
KLAF 201720Z 2018/2118 27016G25KT P6SM SCT030
      TEMPO 2018/2020 BKN030
     FM202000 26016G24KT P6SM BKN035
     FM210000 27009KT P6SM SKC
     FM210600 30005KT P6SM SKC
     FM211500 15004KT P6SM SCT200=



000
FTUS43 KIND 201700
TAFIND
TAF
KIND 201720Z 2018/2124 26015G25KT P6SM BKN035
     FM210000 26008KT P6SM SKC
     FM210700 31005KT P6SM SKC
     FM211500 13006KT P6SM SCT200=



000
FTUS43 KIND 201400 AAA
TAFIND
TAF AMD
KIND 201405Z 2014/2118 25011KT P6SM FEW030
     FM201600 26015G23KT P6SM SCT030
      TEMPO 2017/2021 BKN030
     FM210000 26008KT P6SM SKC
     FM210700 31005KT P6SM SKC=



000
FTUS43 KIND 201100
TAFIND
TAF
KIND 201124Z 2012/2118 25010KT P6SM FEW030
     FM201600 26015G23KT P6SM SCT030
      TEMPO 2017/2021 BKN030
     FM210000 26008KT P6SM SKC
     FM210700 31005KT P6SM SKC=



000
FTUS43 KIND 201100
TAFLAF
TAF
KLAF 201124Z 2012/2112 25010KT P6SM FEW030
     FM201600 26016G24KT P6SM SCT030
      TEMPO 2017/2021 BKN030
     FM210000 27009KT P6SM SKC
     FM210600 30005KT P6SM SKC
      AMD LTD TO CLD VIS AND WIND TIL 201400=



000
FTUS43 KIND 200800 AAA
TAFLAF
TAF AMD
KLAF 200827Z 2008/2106 25008KT P6SM FEW035
     FM201500 27012G20KT P6SM BKN025
     FM202300 28010KT P6SM BKN035
     FM210100 28005KT P6SM SCT035
      AMD LTD TO CLD VIS AND WIND TIL 201400=



000
FTUS43 KIND 200800 AAA
TAFIND
TAF AMD
KIND 200826Z 2008/2112 26009KT P6SM SCT035
     FM201500 26011G16KT P6SM BKN025
     FM202300 28009KT P6SM BKN035
     FM210300 28005KT P6SM SCT035=



    US Dept of Commerce
    National Oceanic and Atmospheric Administration
    National Weather Service
    1325 East West Highway
    Silver Spring, MD 20910
    Page Author: NWS Internet Services Team
Disclaimer
Information Quality
Credits
Glossary
Privacy Policy
Freedom of Information Act (FOIA)
About Us
Career Opportunities